EmailTwitter


Observations de surface / Québec / CYMX

Régions: Québec | Canada | États-Unis | Europe | France | UK | Ailleurs
Station
Affichage
Infos & localisation pour CYMX | Aide pour décoder les METARs

Observations prises le 2020-09-28 à 17H00 UTC à MONTREAL MIRABEL, QB (CYMX)

Etat du ciel: couvert.

Obstacle(s) à la visibilité: faible pluie et brume.

Température: 20.0 Celsius

Point de rosée: 18.0 Celsius

Humidité relative: 88%

Indice Humidex: 26.

Vents: Calme à 0 km/h ou 0 noeuds.

Pression au niveau moyen de la mer: 100.98 kilopascals.

Calage altimétrique: 100.95 kilopascals ou 29.81 pouces de mercure.

Visibilité horizontale: 3.00 milles terrestres ou 4.80 kilomètres.

Hauteur du plafond: 914 mètres ( 3000 pieds ).

Observation METAR:

CYMX 281700Z 00000KT 3SM -RA BR SCT014 OVC030 20/18 A2981 RMK FG2SC1SC5 SLP098

DENSITY ALT 1100FT=